createdAt,value
2016-08-12T00:00:14.594Z,1000.4
2016-08-12T00:00:38.743Z,1000.4
2016-08-12T00:01:02.901Z,1000.4
2016-08-12T00:01:27.089Z,1000.4
2016-08-12T00:01:51.266Z,1000.4
2016-08-12T00:02:15.387Z,1000.4
2016-08-12T00:02:39.512Z,1000.4
2016-08-12T00:03:03.671Z,1000.4
2016-08-12T00:03:27.818Z,1000.4
2016-08-12T00:03:51.925Z,1000.4
2016-08-12T00:04:16.097Z,1000.4
2016-08-12T00:04:40.236Z,1000.4
2016-08-12T00:05:04.391Z,1000.4
2016-08-12T00:05:28.509Z,1000.4
2016-08-12T00:05:52.695Z,1000.4
2016-08-12T00:06:16.844Z,1000.4
2016-08-12T00:06:40.953Z,1000.4
2016-08-12T00:07:05.096Z,1000.4
2016-08-12T00:07:29.243Z,1000.4
2016-08-12T00:07:53.354Z,1000.4
2016-08-12T00:08:17.532Z,1000.4
2016-08-12T00:08:41.874Z,1000.4
2016-08-12T00:09:05.986Z,1000.4
2016-08-12T00:09:30.108Z,1000.4
2016-08-12T00:09:54.220Z,1000.4
2016-08-12T00:10:18.327Z,1000.4
2016-08-12T00:10:42.468Z,1000.3
2016-08-12T00:11:06.587Z,1000.3
2016-08-12T00:11:30.724Z,1000.3
2016-08-12T00:11:54.872Z,1000.3
2016-08-12T00:12:19.010Z,1000.3
2016-08-12T00:12:43.136Z,1000.4
2016-08-12T00:13:07.242Z,1000.3
2016-08-12T00:13:31.366Z,1000.3
2016-08-12T00:13:55.480Z,1000.3
2016-08-12T00:14:19.618Z,1000.3
2016-08-12T00:14:43.788Z,1000.3
2016-08-12T00:15:07.927Z,1000.3
2016-08-12T00:15:32.060Z,1000.3
2016-08-12T00:15:56.224Z,1000.3
2016-08-12T00:16:20.328Z,1000.3
2016-08-12T00:16:44.464Z,1000.3
2016-08-12T00:17:08.628Z,1000.3
2016-08-12T00:17:32.780Z,1000.3
2016-08-12T00:17:56.977Z,1000.3
2016-08-12T00:18:21.145Z,1000.3
2016-08-12T00:18:45.301Z,1000.3
2016-08-12T00:19:09.421Z,1000.3
2016-08-12T00:19:33.546Z,1000.3
2016-08-12T00:19:57.663Z,1000.3
2016-08-12T00:20:21.807Z,1000.3
2016-08-12T00:20:45.969Z,1000.3
2016-08-12T00:21:10.181Z,1000.3
2016-08-12T00:21:34.311Z,1000.3
2016-08-12T00:21:58.465Z,1000.3
2016-08-12T00:22:22.593Z,1000.3
2016-08-12T00:22:46.714Z,1000.3
2016-08-12T00:23:10.844Z,1000.3
2016-08-12T00:23:34.958Z,1000.3
2016-08-12T00:23:59.067Z,1000.3
2016-08-12T00:24:23.185Z,1000.3
2016-08-12T00:24:47.291Z,1000.3
2016-08-12T00:25:11.419Z,1000.3
2016-08-12T00:25:35.527Z,1000.3
2016-08-12T00:25:59.695Z,1000.3
2016-08-12T00:26:23.808Z,1000.3
2016-08-12T00:26:47.946Z,1000.3
2016-08-12T00:27:12.049Z,1000.3
2016-08-12T00:27:36.172Z,1000.3
2016-08-12T00:28:00.333Z,1000.3
2016-08-12T00:28:24.468Z,1000.3
2016-08-12T00:28:48.578Z,1000.3
2016-08-12T00:29:12.714Z,1000.3
2016-08-12T00:29:36.883Z,1000.3
2016-08-12T00:30:01.004Z,1000.3
2016-08-12T00:30:25.158Z,1000.3
2016-08-12T00:30:49.294Z,1000.3
2016-08-12T00:31:13.429Z,1000.3
2016-08-12T00:31:37.543Z,1000.3
2016-08-12T00:32:01.683Z,1000.3
2016-08-12T00:32:25.785Z,1000.3
2016-08-12T00:32:49.898Z,1000.3
2016-08-12T00:33:14.004Z,1000.3
2016-08-12T00:33:38.133Z,1000.3
2016-08-12T00:34:02.260Z,1000.3
2016-08-12T00:34:26.402Z,1000.3
2016-08-12T00:34:50.528Z,1000.2
2016-08-12T00:35:14.654Z,1000.3
2016-08-12T00:35:38.759Z,1000.3
2016-08-12T00:36:02.882Z,1000.2
2016-08-12T00:36:27.026Z,1000.2
2016-08-12T00:36:51.130Z,1000.3
2016-08-12T00:37:15.256Z,1000.3
2016-08-12T00:37:39.381Z,1000.3
2016-08-12T00:38:03.492Z,1000.3
2016-08-12T00:38:27.632Z,1000.3
2016-08-12T00:38:51.735Z,1000.3
2016-08-12T00:39:15.849Z,1000.3
2016-08-12T00:39:39.967Z,1000.2
2016-08-12T00:40:04.087Z,1000.3
2016-08-12T00:40:28.202Z,1000.3
2016-08-12T00:40:52.311Z,1000.3
2016-08-12T00:41:16.452Z,1000.3
2016-08-12T00:41:40.548Z,1000.2
2016-08-12T00:42:04.696Z,1000.2
2016-08-12T00:42:28.860Z,1000.3
2016-08-12T00:42:52.974Z,1000.3
2016-08-12T00:43:17.091Z,1000.2
2016-08-12T00:43:41.200Z,1000.2
2016-08-12T00:44:05.313Z,1000.3
2016-08-12T00:44:29.435Z,1000.3
2016-08-12T00:44:53.591Z,1000.2
2016-08-12T00:45:17.718Z,1000.3
2016-08-12T00:45:41.814Z,1000.3
2016-08-12T00:46:05.963Z,1000.3
2016-08-12T00:46:30.096Z,1000.2
2016-08-12T00:46:54.252Z,1000.3
2016-08-12T00:47:18.372Z,1000.3
2016-08-12T00:47:42.478Z,1000.2
2016-08-12T00:48:06.594Z,1000.2
2016-08-12T00:48:30.730Z,1000.2
2016-08-12T00:48:54.871Z,1000.2
2016-08-12T00:49:19.047Z,1000.2
2016-08-12T00:49:43.152Z,1000.2
2016-08-12T00:50:07.310Z,1000.3
2016-08-12T00:50:31.412Z,1000.2
2016-08-12T00:50:55.506Z,1000.2
2016-08-12T00:51:19.654Z,1000.2
2016-08-12T00:51:43.777Z,1000.2
2016-08-12T00:52:07.904Z,1000.2
2016-08-12T00:52:32.016Z,1000.2
2016-08-12T00:52:56.157Z,1000.2
2016-08-12T00:53:20.244Z,1000.2
2016-08-12T00:53:44.387Z,1000.2
2016-08-12T00:54:08.512Z,1000.2
2016-08-12T00:54:32.617Z,1000.2
2016-08-12T00:54:56.731Z,1000.2
2016-08-12T00:55:20.883Z,1000.2
2016-08-12T00:55:44.988Z,1000.3
2016-08-12T00:56:09.134Z,1000.2
2016-08-12T00:56:33.267Z,1000.3
2016-08-12T00:56:57.394Z,1000.2
2016-08-12T00:57:21.490Z,1000.3
2016-08-12T00:57:45.600Z,1000.3
2016-08-12T00:58:09.691Z,1000.2
2016-08-12T00:58:33.811Z,1000.3
2016-08-12T00:58:57.933Z,1000.2
2016-08-12T00:59:22.056Z,1000.2
2016-08-12T00:59:46.161Z,1000.2
2016-08-12T01:00:10.272Z,1000.2
2016-08-12T01:00:34.382Z,1000.2
2016-08-12T01:00:58.491Z,1000.2
2016-08-12T01:01:22.593Z,1000.2
2016-08-12T01:01:46.702Z,1000.2
2016-08-12T01:02:10.836Z,1000.2
2016-08-12T01:02:34.971Z,1000.2
2016-08-12T01:02:59.079Z,1000.2
2016-08-12T01:03:23.226Z,1000.2
2016-08-12T01:03:47.418Z,1000.2
2016-08-12T01:04:11.584Z,1000.2
2016-08-12T01:04:35.713Z,1000.2
2016-08-12T01:04:59.826Z,1000.2
2016-08-12T01:05:23.991Z,1000.2
2016-08-12T01:05:48.163Z,1000.2
2016-08-12T01:06:12.308Z,1000.2
2016-08-12T01:06:36.413Z,1000.1
2016-08-12T01:07:00.581Z,1000.2
2016-08-12T01:07:24.671Z,1000.1
2016-08-12T01:07:48.818Z,1000.2
2016-08-12T01:08:12.954Z,1000.1
2016-08-12T01:08:37.071Z,1000.2
2016-08-12T01:09:01.178Z,1000.2
2016-08-12T01:09:25.311Z,1000.2
2016-08-12T01:09:49.512Z,1000.1
2016-08-12T01:10:13.619Z,1000.1
2016-08-12T01:10:37.759Z,1000.2
2016-08-12T01:11:01.944Z,1000.1
2016-08-12T01:11:26.073Z,1000.1
2016-08-12T01:11:50.210Z,1000.2
2016-08-12T01:12:14.334Z,1000.1
2016-08-12T01:12:38.453Z,1000.2
2016-08-12T01:13:02.620Z,1000.2
2016-08-12T01:13:26.742Z,1000.2
2016-08-12T01:13:50.918Z,1000.1
2016-08-12T01:14:15.036Z,1000.2
2016-08-12T01:14:39.204Z,1000.2
2016-08-12T01:15:03.329Z,1000.2
2016-08-12T01:15:27.520Z,1000.2
2016-08-12T01:15:51.644Z,1000.2
2016-08-12T01:16:15.773Z,1000.1
2016-08-12T01:16:39.926Z,1000.2
2016-08-12T01:17:04.033Z,1000.1
2016-08-12T01:17:28.172Z,1000.1
2016-08-12T01:17:52.266Z,1000.1
2016-08-12T01:18:16.396Z,1000.1
2016-08-12T01:18:40.520Z,1000.1
2016-08-12T01:19:04.633Z,1000.1
2016-08-12T01:19:28.750Z,1000.1
2016-08-12T01:19:52.913Z,1000.1
2016-08-12T01:20:17.023Z,1000.1
2016-08-12T01:20:41.123Z,1000.1
2016-08-12T01:21:05.225Z,1000.1
2016-08-12T01:21:29.343Z,1000.1
2016-08-12T01:21:53.484Z,1000.1
2016-08-12T01:22:17.597Z,1000.1
2016-08-12T01:22:41.731Z,1000.1
2016-08-12T01:23:05.904Z,1000.1
2016-08-12T01:23:30.042Z,1000.1
2016-08-12T01:23:54.201Z,1000
2016-08-12T01:24:18.314Z,1000.1
2016-08-12T01:24:42.402Z,1000.1
2016-08-12T01:25:06.531Z,1000.1
2016-08-12T01:25:30.661Z,1000.1
2016-08-12T01:25:54.806Z,1000.1
2016-08-12T01:26:18.999Z,1000.1
2016-08-12T01:26:43.130Z,1000.1
2016-08-12T01:27:07.218Z,1000.1
2016-08-12T01:27:31.330Z,1000.1
2016-08-12T01:27:55.503Z,1000.1
2016-08-12T01:28:19.626Z,1000.1
2016-08-12T01:28:43.746Z,1000.2
2016-08-12T01:29:07.844Z,1000.1
2016-08-12T01:29:32.061Z,1000.2
2016-08-12T01:29:56.233Z,1000.2
2016-08-12T01:30:20.364Z,1000.1
2016-08-12T01:30:44.475Z,1000.2
2016-08-12T01:31:08.635Z,1000.1
2016-08-12T01:31:32.758Z,1000.2
2016-08-12T01:31:56.916Z,1000.2
2016-08-12T01:32:21.032Z,1000.2
2016-08-12T01:32:45.204Z,1000.2
2016-08-12T01:33:09.316Z,1000.2
2016-08-12T01:33:33.446Z,1000.2
2016-08-12T01:33:57.541Z,1000.2
2016-08-12T01:34:21.649Z,1000.2
2016-08-12T01:34:45.784Z,1000.2
2016-08-12T01:35:09.967Z,1000.2
2016-08-12T01:35:34.158Z,1000.2
2016-08-12T01:35:58.268Z,1000.2
2016-08-12T01:36:22.410Z,1000.2
2016-08-12T01:36:46.552Z,1000.2
2016-08-12T01:37:10.648Z,1000.2
2016-08-12T01:37:34.784Z,1000.2
2016-08-12T01:37:58.964Z,1000.2
2016-08-12T01:38:23.085Z,1000.2
2016-08-12T01:38:47.178Z,1000.2
2016-08-12T01:39:11.300Z,1000.2
2016-08-12T01:39:35.417Z,1000.2
2016-08-12T01:39:59.519Z,1000.2
2016-08-12T01:40:23.644Z,1000.2
2016-08-12T01:40:47.798Z,1000.2
2016-08-12T01:41:11.928Z,1000.2
2016-08-12T01:41:36.065Z,1000.2
2016-08-12T01:42:00.174Z,1000.2
2016-08-12T01:42:24.267Z,1000.1
2016-08-12T01:42:48.368Z,1000.2
2016-08-12T01:43:12.509Z,1000.1
2016-08-12T01:43:36.603Z,1000.2
2016-08-12T01:44:00.747Z,1000.1
2016-08-12T01:44:24.903Z,1000.2
2016-08-12T01:44:49.030Z,1000.1
2016-08-12T01:45:13.156Z,1000.1
2016-08-12T01:45:37.277Z,1000.1
2016-08-12T01:46:01.463Z,1000.1
2016-08-12T01:46:25.579Z,1000.1
2016-08-12T01:46:49.678Z,1000.1
2016-08-12T01:47:13.789Z,1000.1
2016-08-12T01:47:37.940Z,1000.2
2016-08-12T01:48:02.088Z,1000.1
2016-08-12T01:48:26.265Z,1000.1
2016-08-12T01:48:50.377Z,1000.1
2016-08-12T01:49:14.523Z,1000.1
2016-08-12T01:49:38.701Z,1000.1
2016-08-12T01:50:02.849Z,1000.1
2016-08-12T01:50:27.026Z,1000.1
2016-08-12T01:50:51.160Z,1000.1
2016-08-12T01:51:15.305Z,1000.1
2016-08-12T01:51:39.437Z,1000.1
2016-08-12T01:52:03.648Z,1000.1
2016-08-12T01:52:27.799Z,1000.1
2016-08-12T01:52:51.950Z,1000.1
2016-08-12T01:53:16.039Z,1000
2016-08-12T01:53:40.192Z,1000.1
2016-08-12T01:54:04.284Z,1000
2016-08-12T01:54:28.417Z,1000.1
2016-08-12T01:54:52.535Z,1000
2016-08-12T01:55:16.671Z,1000
2016-08-12T01:55:40.773Z,1000
2016-08-12T01:56:04.884Z,1000
2016-08-12T01:56:29.005Z,1000
2016-08-12T01:56:53.123Z,1000
2016-08-12T01:57:17.234Z,1000
2016-08-12T01:57:41.349Z,1000
2016-08-12T01:58:05.438Z,1000
2016-08-12T01:58:29.556Z,1000
2016-08-12T01:58:53.655Z,1000
2016-08-12T01:59:17.761Z,1000
2016-08-12T01:59:41.859Z,1000
2016-08-12T02:00:05.964Z,1000
2016-08-12T02:00:30.131Z,1000
2016-08-12T02:00:54.239Z,999.9
2016-08-12T02:01:18.357Z,1000
2016-08-12T02:01:42.481Z,1000
2016-08-12T02:02:06.616Z,999.9
2016-08-12T02:02:30.768Z,999.9
2016-08-12T02:02:54.924Z,999.9
2016-08-12T02:03:19.035Z,999.9
2016-08-12T02:03:43.168Z,999.9
2016-08-12T02:04:07.282Z,999.9
2016-08-12T02:04:31.433Z,999.9
2016-08-12T02:04:55.571Z,999.9
2016-08-12T02:05:19.699Z,999.9
2016-08-12T02:05:43.807Z,999.9
2016-08-12T02:06:07.941Z,999.9
2016-08-12T02:06:32.050Z,999.9
2016-08-12T02:06:56.209Z,999.9
2016-08-12T02:07:20.324Z,999.9
2016-08-12T02:07:44.503Z,999.9
2016-08-12T02:08:08.613Z,999.9
2016-08-12T02:08:32.761Z,999.9
2016-08-12T02:08:56.885Z,999.9
2016-08-12T02:09:21.011Z,999.9
2016-08-12T02:09:45.172Z,999.9
2016-08-12T02:10:09.324Z,999.9
2016-08-12T02:10:33.498Z,999.9
2016-08-12T02:10:57.609Z,999.9
2016-08-12T02:11:21.718Z,999.9
2016-08-12T02:11:45.857Z,999.9
2016-08-12T02:12:09.991Z,999.9
2016-08-12T02:12:34.105Z,999.9
2016-08-12T02:12:58.238Z,999.9
2016-08-12T02:13:22.367Z,999.9
2016-08-12T02:13:46.575Z,999.9
2016-08-12T02:14:10.708Z,999.9
2016-08-12T02:14:34.814Z,999.9
2016-08-12T02:14:58.931Z,999.9
2016-08-12T02:15:23.037Z,999.8
2016-08-12T02:15:47.145Z,999.8
2016-08-12T02:16:11.273Z,999.8
2016-08-12T02:16:35.391Z,999.8
2016-08-12T02:16:59.521Z,999.8
2016-08-12T02:17:23.679Z,999.8
2016-08-12T02:17:47.776Z,999.8
2016-08-12T02:18:11.932Z,999.8
2016-08-12T02:18:36.038Z,999.8
2016-08-12T02:19:00.168Z,999.9
2016-08-12T02:19:24.320Z,999.8
2016-08-12T02:19:48.429Z,999.8
2016-08-12T02:20:12.547Z,999.8
2016-08-12T02:20:36.720Z,999.8
2016-08-12T02:21:00.828Z,999.8
2016-08-12T02:21:24.929Z,999.8
2016-08-12T02:21:49.022Z,999.9
2016-08-12T02:22:13.120Z,999.8
2016-08-12T02:22:37.232Z,999.8
2016-08-12T02:23:01.342Z,999.8
2016-08-12T02:23:25.441Z,999.8
2016-08-12T02:23:49.570Z,999.8
2016-08-12T02:24:13.697Z,999.8
2016-08-12T02:24:37.830Z,999.8
2016-08-12T02:25:01.972Z,999.8
2016-08-12T02:25:26.113Z,999.8
2016-08-12T02:25:50.252Z,999.8
2016-08-12T02:26:14.438Z,999.8
2016-08-12T02:26:38.615Z,999.8
2016-08-12T02:27:02.738Z,999.8
2016-08-12T02:27:26.976Z,999.8
2016-08-12T02:27:51.074Z,999.8
2016-08-12T02:28:15.212Z,999.8
2016-08-12T02:28:39.355Z,999.8
2016-08-12T02:29:03.483Z,999.8
2016-08-12T02:29:27.631Z,999.8
2016-08-12T02:29:51.763Z,999.8
2016-08-12T02:30:15.897Z,999.8
2016-08-12T02:30:40.035Z,999.8
2016-08-12T02:31:04.204Z,999.7
2016-08-12T02:31:28.314Z,999.8
2016-08-12T02:31:52.435Z,999.8
2016-08-12T02:32:16.589Z,999.8
2016-08-12T02:32:40.793Z,999.7
2016-08-12T02:33:04.890Z,999.7
2016-08-12T02:33:29.015Z,999.7
2016-08-12T02:33:53.118Z,999.7
2016-08-12T02:34:17.228Z,999.7
2016-08-12T02:34:41.336Z,999.7
2016-08-12T02:35:05.479Z,999.7
2016-08-12T02:35:29.588Z,999.7
2016-08-12T02:35:53.694Z,999.7
2016-08-12T02:36:17.826Z,999.7
2016-08-12T02:36:41.958Z,999.7
2016-08-12T02:37:06.045Z,999.7
2016-08-12T02:37:30.215Z,999.7
2016-08-12T02:37:54.314Z,999.7
2016-08-12T02:38:18.467Z,999.7
2016-08-12T02:38:42.566Z,999.7
2016-08-12T02:39:06.690Z,999.6
2016-08-12T02:39:30.801Z,999.7
2016-08-12T02:39:54.908Z,999.7
2016-08-12T02:40:19.022Z,999.7
2016-08-12T02:40:43.129Z,999.7
2016-08-12T02:41:07.270Z,999.7
2016-08-12T02:41:31.378Z,999.7
2016-08-12T02:41:55.481Z,999.6
2016-08-12T02:42:19.597Z,999.6
2016-08-12T02:42:43.721Z,999.7
2016-08-12T02:43:07.862Z,999.7
2016-08-12T02:43:31.976Z,999.7
2016-08-12T02:43:56.117Z,999.7
2016-08-12T02:44:20.233Z,999.7
2016-08-12T02:44:44.348Z,999.7
2016-08-12T02:45:08.472Z,999.7
2016-08-12T02:45:32.629Z,999.7
2016-08-12T02:45:56.727Z,999.7
2016-08-12T02:46:20.828Z,999.7
2016-08-12T02:46:44.977Z,999.7
2016-08-12T02:47:09.077Z,999.7
2016-08-12T02:47:33.187Z,999.7
2016-08-12T02:47:57.309Z,999.7
2016-08-12T02:48:21.447Z,999.7
2016-08-12T02:48:45.584Z,999.7
2016-08-12T02:49:09.695Z,999.7
2016-08-12T02:49:33.815Z,999.7
2016-08-12T02:49:57.914Z,999.7
2016-08-12T02:50:22.013Z,999.7
2016-08-12T02:50:46.113Z,999.7
2016-08-12T02:51:10.219Z,999.7
2016-08-12T02:51:34.440Z,999.7
2016-08-12T02:51:58.565Z,999.7
2016-08-12T02:52:22.689Z,999.7
2016-08-12T02:52:47.612Z,999.7
2016-08-12T02:53:11.729Z,999.7
2016-08-12T02:53:35.831Z,999.7
2016-08-12T02:53:59.932Z,999.7
2016-08-12T02:54:24.049Z,999.7
2016-08-12T02:54:48.163Z,999.7
2016-08-12T02:55:12.287Z,999.7
2016-08-12T02:55:36.396Z,999.7
2016-08-12T02:56:00.517Z,999.6
2016-08-12T02:56:24.619Z,999.6
2016-08-12T02:56:48.733Z,999.6
2016-08-12T02:57:12.843Z,999.6
2016-08-12T02:57:37.037Z,999.6
2016-08-12T02:58:01.161Z,999.7
2016-08-12T02:58:25.288Z,999.7
2016-08-12T02:58:49.401Z,999.7
2016-08-12T02:59:13.520Z,999.6
2016-08-12T02:59:37.649Z,999.6
2016-08-12T03:00:01.766Z,999.6
2016-08-12T03:00:25.887Z,999.7
2016-08-12T03:00:50.006Z,999.6
2016-08-12T03:01:14.132Z,999.6
2016-08-12T03:01:38.241Z,999.6
2016-08-12T03:02:02.379Z,999.6
2016-08-12T03:02:26.503Z,999.6
2016-08-12T03:02:50.648Z,999.6
2016-08-12T03:03:14.808Z,999.6
2016-08-12T03:03:38.920Z,999.6
2016-08-12T03:04:03.047Z,999.6
2016-08-12T03:04:27.186Z,999.6
2016-08-12T03:04:51.363Z,999.6
2016-08-12T03:05:15.495Z,999.6
2016-08-12T03:05:39.619Z,999.7
2016-08-12T03:06:03.815Z,999.7
2016-08-12T03:06:27.940Z,999.7
2016-08-12T03:06:52.048Z,999.6
2016-08-12T03:07:16.174Z,999.7
2016-08-12T03:07:40.318Z,999.7
2016-08-12T03:08:04.430Z,999.6
2016-08-12T03:08:28.588Z,999.7
2016-08-12T03:08:52.724Z,999.7
2016-08-12T03:09:16.849Z,999.6
2016-08-12T03:09:40.974Z,999.6
2016-08-12T03:10:05.078Z,999.6
2016-08-12T03:10:29.169Z,999.6
2016-08-12T03:10:53.286Z,999.6
2016-08-12T03:11:17.378Z,999.6
2016-08-12T03:11:41.509Z,999.6
2016-08-12T03:12:05.616Z,999.6
2016-08-12T03:12:29.743Z,999.6
2016-08-12T03:12:53.863Z,999.6
2016-08-12T03:13:17.964Z,999.6
2016-08-12T03:13:42.074Z,999.6
2016-08-12T03:14:06.171Z,999.6
2016-08-12T03:14:30.307Z,999.6
2016-08-12T03:14:54.425Z,999.6
2016-08-12T03:15:18.547Z,999.7
2016-08-12T03:15:42.669Z,999.6
2016-08-12T03:16:06.806Z,999.6
2016-08-12T03:16:30.919Z,999.6
2016-08-12T03:16:55.031Z,999.6
2016-08-12T03:17:19.149Z,999.7
2016-08-12T03:17:43.254Z,999.6
2016-08-12T03:18:07.379Z,999.7
2016-08-12T03:18:31.570Z,999.7
2016-08-12T03:18:55.719Z,999.7
2016-08-12T03:19:19.841Z,999.7
2016-08-12T03:19:44.002Z,999.7
2016-08-12T03:20:08.115Z,999.7
2016-08-12T03:20:32.221Z,999.7
2016-08-12T03:20:56.337Z,999.7
2016-08-12T03:21:20.487Z,999.7
2016-08-12T03:21:44.602Z,999.7
2016-08-12T03:22:08.723Z,999.7
2016-08-12T03:22:32.862Z,999.7
2016-08-12T03:22:56.999Z,999.7
2016-08-12T03:23:21.178Z,999.7
2016-08-12T03:23:45.332Z,999.7
2016-08-12T03:24:09.543Z,999.7
2016-08-12T03:24:33.651Z,999.7
2016-08-12T03:24:57.822Z,999.7
2016-08-12T03:25:21.935Z,999.7
2016-08-12T03:25:46.175Z,999.7
2016-08-12T03:26:10.302Z,999.7
2016-08-12T03:26:34.463Z,999.7
2016-08-12T03:26:58.581Z,999.7
2016-08-12T03:27:22.719Z,999.7
2016-08-12T03:27:46.835Z,999.8
2016-08-12T03:28:10.975Z,999.7
2016-08-12T03:28:35.102Z,999.7
2016-08-12T03:28:59.227Z,999.7
2016-08-12T03:29:23.339Z,999.7
2016-08-12T03:29:47.497Z,999.7
2016-08-12T03:30:11.624Z,999.7
2016-08-12T03:30:35.767Z,999.7
2016-08-12T03:30:59.871Z,999.8
2016-08-12T03:31:23.998Z,999.7
2016-08-12T03:31:48.161Z,999.8
2016-08-12T03:32:12.264Z,999.8
2016-08-12T03:32:36.397Z,999.8
2016-08-12T03:33:00.516Z,999.8
2016-08-12T03:33:24.653Z,999.8
2016-08-12T03:33:48.821Z,999.8
2016-08-12T03:34:12.977Z,999.8
2016-08-12T03:34:37.104Z,999.8
2016-08-12T03:35:01.211Z,999.8
2016-08-12T03:35:25.337Z,999.8
2016-08-12T03:35:49.419Z,999.8
2016-08-12T03:36:13.608Z,999.9
2016-08-12T03:36:37.741Z,999.8
2016-08-12T03:37:01.876Z,999.8
2016-08-12T03:37:25.990Z,999.8
2016-08-12T03:37:50.123Z,999.8
2016-08-12T03:38:14.269Z,999.9
2016-08-12T03:38:38.389Z,999.9
2016-08-12T03:39:02.488Z,999.9
2016-08-12T03:39:26.655Z,999.9
2016-08-12T03:39:50.765Z,999.9
2016-08-12T03:40:14.923Z,999.9
2016-08-12T03:40:39.015Z,999.9
2016-08-12T03:41:03.232Z,999.9
2016-08-12T03:41:27.408Z,999.9
2016-08-12T03:41:51.533Z,999.9
2016-08-12T03:42:15.771Z,999.9
2016-08-12T03:42:40.023Z,999.9
2016-08-12T03:43:04.153Z,1000
2016-08-12T03:43:28.394Z,999.9
2016-08-12T03:43:52.510Z,1000
2016-08-12T03:44:16.628Z,1000
2016-08-12T03:44:40.733Z,999.9
2016-08-12T03:45:04.852Z,1000
2016-08-12T03:45:28.975Z,1000
2016-08-12T03:45:53.163Z,999.9
2016-08-12T03:46:17.302Z,999.9
2016-08-12T03:46:41.422Z,999.9
2016-08-12T03:47:05.602Z,1000
2016-08-12T03:47:29.762Z,1000
2016-08-12T03:47:53.868Z,1000
2016-08-12T03:48:17.975Z,1000
2016-08-12T03:48:42.103Z,1000
2016-08-12T03:49:06.225Z,1000
2016-08-12T03:49:30.337Z,1000
2016-08-12T03:49:54.636Z,1000
2016-08-12T03:50:19.282Z,1000
2016-08-12T03:50:44.451Z,1000
2016-08-12T03:51:09.675Z,1000
2016-08-12T03:51:33.773Z,1000
2016-08-12T03:51:57.930Z,1000.1
2016-08-12T03:52:22.051Z,1000
2016-08-12T03:52:46.176Z,1000.1
2016-08-12T03:53:10.324Z,1000.1
2016-08-12T03:53:34.464Z,1000.1
2016-08-12T03:53:58.625Z,1000.1
2016-08-12T03:54:22.751Z,1000.1
2016-08-12T03:54:46.862Z,1000.1
2016-08-12T03:55:10.979Z,1000.1
2016-08-12T03:55:35.128Z,1000.1
2016-08-12T03:55:59.254Z,1000.1
2016-08-12T03:56:23.411Z,1000.1
2016-08-12T03:56:47.527Z,1000.1
2016-08-12T03:57:11.663Z,1000.1
2016-08-12T03:57:35.828Z,1000.1
2016-08-12T03:57:59.966Z,1000.1
2016-08-12T03:58:24.110Z,1000.1
2016-08-12T03:58:48.234Z,1000.1
2016-08-12T03:59:12.377Z,1000.1
2016-08-12T03:59:36.512Z,1000.1
2016-08-12T04:00:00.680Z,1000.1
2016-08-12T04:00:24.894Z,1000.1
2016-08-12T04:00:49.039Z,1000.1
2016-08-12T04:01:13.213Z,1000.1
2016-08-12T04:01:37.368Z,1000.1
2016-08-12T04:02:01.485Z,1000.1
2016-08-12T04:02:25.622Z,1000.1
2016-08-12T04:02:49.729Z,1000.1
2016-08-12T04:03:13.868Z,1000.1
2016-08-12T04:03:38.012Z,1000.1
2016-08-12T04:04:02.142Z,1000.1
2016-08-12T04:04:26.244Z,1000.1
2016-08-12T04:04:50.360Z,1000.1
2016-08-12T04:05:14.470Z,1000.1
2016-08-12T04:05:38.574Z,1000.1
2016-08-12T04:06:02.731Z,1000.1
2016-08-12T04:06:26.932Z,1000.1
2016-08-12T04:06:51.058Z,1000.1
2016-08-12T04:07:15.186Z,1000.1
2016-08-12T04:07:39.346Z,1000.1
2016-08-12T04:08:03.238Z,1000.1
2016-08-12T04:08:27.351Z,1000.1
2016-08-12T04:08:51.466Z,1000.1
2016-08-12T04:09:15.611Z,1000.1
2016-08-12T04:09:39.725Z,1000.1
2016-08-12T04:10:03.864Z,1000.1
2016-08-12T04:10:28.022Z,1000.1
2016-08-12T04:10:52.137Z,1000.1
2016-08-12T04:11:16.255Z,1000.1
2016-08-12T04:11:40.401Z,1000.1
2016-08-12T04:12:04.528Z,1000.1
2016-08-12T04:12:28.632Z,1000.1
2016-08-12T04:12:52.750Z,1000.1
2016-08-12T04:13:16.883Z,1000.1
2016-08-12T04:13:41.017Z,1000.1
2016-08-12T04:14:05.137Z,1000.1
2016-08-12T04:14:29.252Z,1000.1
2016-08-12T04:14:53.361Z,1000.1
2016-08-12T04:15:17.477Z,1000.1
2016-08-12T04:15:41.592Z,1000.1
2016-08-12T04:16:05.717Z,1000.1
2016-08-12T04:16:29.868Z,1000.1
2016-08-12T04:16:54.041Z,1000
2016-08-12T04:17:18.161Z,1000.1
2016-08-12T04:17:42.280Z,1000.1
2016-08-12T04:18:06.422Z,1000.1
2016-08-12T04:18:30.535Z,1000.1
2016-08-12T04:18:54.656Z,1000
2016-08-12T04:19:18.826Z,1000.1
2016-08-12T04:19:42.942Z,1000.1
2016-08-12T04:20:07.063Z,1000.1
2016-08-12T04:20:31.187Z,1000.1
2016-08-12T04:20:55.284Z,1000.1
2016-08-12T04:21:19.397Z,1000.1
2016-08-12T04:21:43.510Z,1000.1
2016-08-12T04:22:07.630Z,1000.1
2016-08-12T04:22:31.743Z,1000.1
2016-08-12T04:22:55.859Z,1000.1
2016-08-12T04:23:19.956Z,1000.1
2016-08-12T04:23:44.081Z,1000.1
2016-08-12T04:24:08.209Z,1000.1
2016-08-12T04:24:32.342Z,1000.1
2016-08-12T04:24:56.483Z,1000.1
2016-08-12T04:25:20.631Z,1000.1
2016-08-12T04:25:44.770Z,1000.1
2016-08-12T04:26:08.884Z,1000.1
2016-08-12T04:26:32.997Z,1000.1
2016-08-12T04:26:57.133Z,1000.1
2016-08-12T04:27:21.268Z,1000.1
2016-08-12T04:27:45.421Z,1000.1
2016-08-12T04:28:09.600Z,1000.1
2016-08-12T04:28:33.740Z,1000.1
2016-08-12T04:28:57.880Z,1000.1
2016-08-12T04:29:22.017Z,1000.1
2016-08-12T04:29:46.135Z,1000.1
2016-08-12T04:30:10.278Z,1000.1
2016-08-12T04:30:34.404Z,1000.1
2016-08-12T04:30:58.560Z,1000.1
2016-08-12T04:31:22.778Z,1000.1
2016-08-12T04:31:46.881Z,1000.1
2016-08-12T04:32:11.026Z,1000.1
2016-08-12T04:32:35.740Z,1000.1
2016-08-12T04:32:59.865Z,1000.1
2016-08-12T04:33:24.044Z,1000.1
2016-08-12T04:33:48.189Z,1000.1
2016-08-12T04:34:12.395Z,1000.1
2016-08-12T04:34:36.531Z,1000.1
2016-08-12T04:35:00.708Z,1000.1
2016-08-12T04:35:24.804Z,1000.1
2016-08-12T04:35:48.938Z,1000.1
2016-08-12T04:36:13.077Z,1000.1
2016-08-12T04:36:37.216Z,1000.1
2016-08-12T04:37:01.344Z,1000.1
2016-08-12T04:37:25.471Z,1000.1
2016-08-12T04:37:49.643Z,1000.1
2016-08-12T04:38:13.835Z,1000.1
2016-08-12T04:38:37.992Z,1000.2
2016-08-12T04:39:02.113Z,1000.1
2016-08-12T04:39:26.263Z,1000.1
2016-08-12T04:39:50.453Z,1000.1
2016-08-12T04:40:14.563Z,1000.2
2016-08-12T04:40:38.693Z,1000.1
2016-08-12T04:41:02.818Z,1000.2
2016-08-12T04:41:26.956Z,1000.2
2016-08-12T04:41:51.102Z,1000.2
2016-08-12T04:42:15.264Z,1000.2
2016-08-12T04:42:39.378Z,1000.1
2016-08-12T04:43:03.505Z,1000.2
2016-08-12T04:43:27.665Z,1000.1
2016-08-12T04:43:51.810Z,1000.1
2016-08-12T04:44:16.017Z,1000.2
2016-08-12T04:44:40.187Z,1000.2
2016-08-12T04:45:04.311Z,1000.2
2016-08-12T04:45:28.412Z,1000.1
2016-08-12T04:45:52.564Z,1000.1
2016-08-12T04:46:16.704Z,1000.1
2016-08-12T04:46:40.864Z,1000.1
2016-08-12T04:47:05.011Z,1000.2
2016-08-12T04:47:29.146Z,1000.1
2016-08-12T04:47:53.268Z,1000.1
2016-08-12T04:48:17.382Z,1000.1
2016-08-12T04:48:41.536Z,1000.1
2016-08-12T04:49:05.664Z,1000.1
2016-08-12T04:49:29.859Z,1000.1
2016-08-12T04:49:54.046Z,1000.1
2016-08-12T04:50:18.197Z,1000.1
2016-08-12T04:50:42.384Z,1000.1
2016-08-12T04:51:06.484Z,1000.1
2016-08-12T04:51:30.666Z,1000.1
2016-08-12T04:51:54.676Z,1000.1
2016-08-12T04:52:18.795Z,1000.1
2016-08-12T04:52:42.900Z,1000.1
2016-08-12T04:53:07.038Z,1000.1
2016-08-12T04:53:31.183Z,1000.1
2016-08-12T04:53:55.362Z,1000.1
2016-08-12T04:54:19.486Z,1000.1
2016-08-12T04:54:43.690Z,1000.1
2016-08-12T04:55:07.801Z,1000.1
2016-08-12T04:55:31.958Z,1000.1
2016-08-12T04:55:56.079Z,1000.1
2016-08-12T04:56:20.290Z,1000.1
2016-08-12T04:56:44.447Z,1000.1
2016-08-12T04:57:08.585Z,1000.1
2016-08-12T04:57:32.730Z,1000.1
2016-08-12T04:57:56.877Z,1000.1
2016-08-12T04:58:21.056Z,1000.1
2016-08-12T04:58:45.192Z,1000.1
2016-08-12T04:59:09.363Z,1000.2
2016-08-12T04:59:33.588Z,1000.2
2016-08-12T04:59:57.736Z,1000.2
2016-08-12T05:00:21.914Z,1000.1
2016-08-12T05:00:46.065Z,1000.1
2016-08-12T05:01:10.200Z,1000.1
2016-08-12T05:01:34.319Z,1000.2
2016-08-12T05:01:58.540Z,1000.2
2016-08-12T05:02:22.655Z,1000.2
2016-08-12T05:02:46.790Z,1000.2
2016-08-12T05:03:10.950Z,1000.2
2016-08-12T05:03:35.071Z,1000.2
2016-08-12T05:04:00.110Z,1000.2
2016-08-12T05:04:24.227Z,1000.2
2016-08-12T05:04:48.348Z,1000.2
2016-08-12T05:05:12.510Z,1000.2
2016-08-12T05:05:36.765Z,1000.2